Offenbeek, Netherlands
Current Conditions -  °F | °C
As of 8:20 PM on Sunday 21 Dec 2014 (Local Time) from EDLN Reporting Station
Broken Clouds Broken Clouds  
Wind Chill: 41°   Ceiling: 1000
Heat Index: 46°   Visibility: 5mi
Dew Point: 45°   Wind: 13mph
Humidity: 93%   Direction: 240°WSW
Pressure: 30.24"   Gusts: NA
Location:  51.28°N, 6.1°E
Report Text: EDLN 211920Z 24011KT 190V270 8000 BKN010 08/07 Q1024 RERA
Loading
Personal Weather Stations






























Interactive Weather Map New forecast layout! Learn more

10-Day Weather Forecast

Advertisements
Track Severe Weather on mobile